sensor_id;sensor_type;location;lat;lon;timestamp;pressure;altitude;pressure_sealevel;temperature;humidity
22181;BME280;11256;50.830;12.834;2023-01-30T00:02:43;97685.72;;;-1.77;72.46
22181;BME280;11256;50.830;12.834;2023-01-30T00:07:43;97703.69;;;-1.79;73.25
22181;BME280;11256;50.830;12.834;2023-01-30T00:12:45;97682.00;;;-1.82;73.24
22181;BME280;11256;50.830;12.834;2023-01-30T00:17:45;97679.19;;;-1.87;73.24
22181;BME280;11256;50.830;12.834;2023-01-30T00:22:46;97683.88;;;-1.83;73.78
22181;BME280;11256;50.830;12.834;2023-01-30T00:27:46;97672.63;;;-1.78;73.58
22181;BME280;11256;50.830;12.834;2023-01-30T00:32:46;97670.59;;;-1.70;73.45
22181;BME280;11256;50.830;12.834;2023-01-30T00:37:47;97653.03;;;-1.71;73.68
22181;BME280;11256;50.830;12.834;2023-01-30T00:42:48;97655.09;;;-1.73;73.85
22181;BME280;11256;50.830;12.834;2023-01-30T00:48:07;97652.22;;;-1.71;74.01
22181;BME280;11256;50.830;12.834;2023-01-30T00:53:12;97637.50;;;-1.80;74.51
22181;BME280;11256;50.830;12.834;2023-01-30T00:58:13;97640.34;;;-1.69;74.23
22181;BME280;11256;50.830;12.834;2023-01-30T01:03:14;97639.97;;;-1.66;74.51
22181;BME280;11256;50.830;12.834;2023-01-30T01:08:15;97640.34;;;-1.69;74.60
22181;BME280;11256;50.830;12.834;2023-01-30T01:13:15;97621.97;;;-1.64;75.05
22181;BME280;11256;50.830;12.834;2023-01-30T01:18:15;97632.19;;;-1.61;75.27
22181;BME280;11256;50.830;12.834;2023-01-30T01:23:16;97595.63;;;-1.59;75.56
22181;BME280;11256;50.830;12.834;2023-01-30T01:28:16;97582.13;;;-1.57;75.57
22181;BME280;11256;50.830;12.834;2023-01-30T01:33:20;97563.94;;;-1.47;75.39
22181;BME280;11256;50.830;12.834;2023-01-30T01:38:21;97550.03;;;-1.43;75.46
22181;BME280;11256;50.830;12.834;2023-01-30T01:43:23;97521.25;;;-1.46;75.80
22181;BME280;11256;50.830;12.834;2023-01-30T01:48:31;97526.75;;;-1.41;75.49
22181;BME280;11256;50.830;12.834;2023-01-30T01:53:42;97509.91;;;-1.28;75.69
22181;BME280;11256;50.830;12.834;2023-01-30T01:58:48;97481.72;;;-1.29;75.44
22181;BME280;11256;50.830;12.834;2023-01-30T02:03:54;97489.09;;;-1.31;75.92
22181;BME280;11256;50.830;12.834;2023-01-30T02:09:03;97480.50;;;-1.27;76.05
22181;BME280;11256;50.830;12.834;2023-01-30T02:14:05;97467.19;;;-1.27;76.90
22181;BME280;11256;50.830;12.834;2023-01-30T02:19:34;97441.41;;;-1.20;76.17
22181;BME280;11256;50.830;12.834;2023-01-30T02:30:14;97447.94;;;-1.16;76.75
22181;BME280;11256;50.830;12.834;2023-01-30T02:35:42;97447.75;;;-1.21;76.96
22181;BME280;11256;50.830;12.834;2023-01-30T02:51:35;97437.00;;;-1.01;77.49
22181;BME280;11256;50.830;12.834;2023-01-30T02:56:47;97423.13;;;-1.03;77.86
22181;BME280;11256;50.830;12.834;2023-01-30T03:17:27;97400.19;;;-0.98;78.12
22181;BME280;11256;50.830;12.834;2023-01-30T03:22:28;97376.59;;;-0.88;78.23
22181;BME280;11256;50.830;12.834;2023-01-30T03:27:29;97348.53;;;-0.84;77.93
22181;BME280;11256;50.830;12.834;2023-01-30T03:32:30;97342.81;;;-0.81;77.86
22181;BME280;11256;50.830;12.834;2023-01-30T03:37:31;97328.47;;;-0.80;77.57
22181;BME280;11256;50.830;12.834;2023-01-30T03:42:31;97322.88;;;-0.72;77.93
22181;BME280;11256;50.830;12.834;2023-01-30T03:47:32;97336.16;;;-0.72;78.38
22181;BME280;11256;50.830;12.834;2023-01-30T03:52:34;97342.09;;;-0.70;78.48
22181;BME280;11256;50.830;12.834;2023-01-30T03:57:35;97311.44;;;-0.72;78.54
22181;BME280;11256;50.830;12.834;2023-01-30T04:02:35;97326.28;;;-0.65;78.72
22181;BME280;11256;50.830;12.834;2023-01-30T04:07:37;97316.81;;;-0.61;78.85
22181;BME280;11256;50.830;12.834;2023-01-30T04:12:38;97290.84;;;-0.59;78.44
22181;BME280;11256;50.830;12.834;2023-01-30T04:17:39;97281.38;;;-0.55;78.83
22181;BME280;11256;50.830;12.834;2023-01-30T04:23:15;97270.00;;;-0.62;79.10
22181;BME280;11256;50.830;12.834;2023-01-30T04:28:16;97265.41;;;-0.55;79.07
22181;BME280;11256;50.830;12.834;2023-01-30T04:33:18;97239.84;;;-0.56;78.93
22181;BME280;11256;50.830;12.834;2023-01-30T04:38:19;97228.78;;;-0.53;78.80
22181;BME280;11256;50.830;12.834;2023-01-30T04:43:20;97216.50;;;-0.54;78.91
22181;BME280;11256;50.830;12.834;2023-01-30T04:48:49;97216.66;;;-0.49;79.19
22181;BME280;11256;50.830;12.834;2023-01-30T04:53:50;97227.13;;;-0.36;78.67
22181;BME280;11256;50.830;12.834;2023-01-30T04:58:50;97237.47;;;-0.28;79.17
22181;BME280;11256;50.830;12.834;2023-01-30T05:03:52;97228.91;;;-0.30;79.13
22181;BME280;11256;50.830;12.834;2023-01-30T05:08:54;97210.41;;;-0.25;79.46
22181;BME280;11256;50.830;12.834;2023-01-30T05:13:55;97211.59;;;-0.21;79.26
22181;BME280;11256;50.830;12.834;2023-01-30T05:18:55;97189.28;;;-0.09;79.03
22181;BME280;11256;50.830;12.834;2023-01-30T05:23:56;97184.34;;;-0.05;78.92
22181;BME280;11256;50.830;12.834;2023-01-30T05:28:57;97173.84;;;0.00;79.17
22181;BME280;11256;50.830;12.834;2023-01-30T05:33:57;97139.53;;;-0.08;79.02
22181;BME280;11256;50.830;12.834;2023-01-30T05:38:57;97151.03;;;0.04;78.98
22181;BME280;11256;50.830;12.834;2023-01-30T05:43:57;97131.00;;;0.01;79.57
22181;BME280;11256;50.830;12.834;2023-01-30T05:48:58;97141.56;;;0.08;79.06
22181;BME280;11256;50.830;12.834;2023-01-30T05:53:58;97138.53;;;0.16;79.15
22181;BME280;11256;50.830;12.834;2023-01-30T05:58:59;97114.34;;;0.06;79.73
22181;BME280;11256;50.830;12.834;2023-01-30T06:04:00;97120.16;;;0.14;79.74
22181;BME280;11256;50.830;12.834;2023-01-30T06:09:02;97114.00;;;0.14;79.79
22181;BME280;11256;50.830;12.834;2023-01-30T06:14:03;97099.19;;;0.18;80.07
22181;BME280;11256;50.830;12.834;2023-01-30T06:19:03;97091.00;;;0.19;80.15
22181;BME280;11256;50.830;12.834;2023-01-30T06:24:03;97097.81;;;0.27;80.09
22181;BME280;11256;50.830;12.834;2023-01-30T06:29:04;97110.53;;;0.25;80.97
22181;BME280;11256;50.830;12.834;2023-01-30T06:34:04;97076.75;;;0.25;81.28
22181;BME280;11256;50.830;12.834;2023-01-30T06:39:04;97088.31;;;0.31;80.60
22181;BME280;11256;50.830;12.834;2023-01-30T06:44:04;97102.22;;;0.33;80.80
22181;BME280;11256;50.830;12.834;2023-01-30T06:49:05;97102.94;;;0.40;80.54
22181;BME280;11256;50.830;12.834;2023-01-30T06:54:05;97086.47;;;0.43;80.73
22181;BME280;11256;50.830;12.834;2023-01-30T06:59:05;97103.97;;;0.39;81.38
22181;BME280;11256;50.830;12.834;2023-01-30T07:04:06;97095.28;;;0.43;81.64
22181;BME280;11256;50.830;12.834;2023-01-30T07:09:06;97070.47;;;0.43;81.49
22181;BME280;11256;50.830;12.834;2023-01-30T07:14:08;97071.66;;;0.47;81.29
22181;BME280;11256;50.830;12.834;2023-01-30T07:19:08;97081.72;;;0.56;81.67
22181;BME280;11256;50.830;12.834;2023-01-30T07:24:08;97073.59;;;0.63;81.19
22181;BME280;11256;50.830;12.834;2023-01-30T07:29:09;97072.56;;;0.64;81.41
22181;BME280;11256;50.830;12.834;2023-01-30T07:34:09;97076.38;;;0.68;81.62
22181;BME280;11256;50.830;12.834;2023-01-30T07:39:09;97065.50;;;0.69;81.22
22181;BME280;11256;50.830;12.834;2023-01-30T07:44:11;97065.72;;;0.68;81.51
22181;BME280;11256;50.830;12.834;2023-01-30T07:49:11;97072.44;;;0.82;81.63
22181;BME280;11256;50.830;12.834;2023-01-30T07:54:12;97071.97;;;0.85;81.73
22181;BME280;11256;50.830;12.834;2023-01-30T07:59:12;97061.84;;;0.87;82.02
22181;BME280;11256;50.830;12.834;2023-01-30T08:04:12;97076.94;;;0.93;82.01
22181;BME280;11256;50.830;12.834;2023-01-30T08:09:13;97068.56;;;1.01;82.11
22181;BME280;11256;50.830;12.834;2023-01-30T08:14:13;97055.78;;;1.03;82.80
22181;BME280;11256;50.830;12.834;2023-01-30T08:19:13;97063.69;;;0.98;82.81
22181;BME280;11256;50.830;12.834;2023-01-30T08:24:14;97072.25;;;1.11;82.60
22181;BME280;11256;50.830;12.834;2023-01-30T08:29:14;97083.72;;;1.12;82.74
22181;BME280;11256;50.830;12.834;2023-01-30T08:34:14;97060.78;;;1.11;83.78
22181;BME280;11256;50.830;12.834;2023-01-30T08:39:15;97075.06;;;1.05;83.75
22181;BME280;11256;50.830;12.834;2023-01-30T08:44:15;97081.59;;;1.25;83.16
22181;BME280;11256;50.830;12.834;2023-01-30T08:49:15;97059.06;;;1.33;83.18
22181;BME280;11256;50.830;12.834;2023-01-30T08:54:16;97070.84;;;1.48;83.19
22181;BME280;11256;50.830;12.834;2023-01-30T08:59:16;97035.09;;;1.49;82.41
22181;BME280;11256;50.830;12.834;2023-01-30T09:04:16;97071.38;;;1.62;82.62
22181;BME280;11256;50.830;12.834;2023-01-30T09:09:17;97041.63;;;1.70;82.38
22181;BME280;11256;50.830;12.834;2023-01-30T09:14:17;97040.66;;;1.76;83.10
22181;BME280;11256;50.830;12.834;2023-01-30T09:19:18;97048.44;;;1.94;82.93
22181;BME280;11256;50.830;12.834;2023-01-30T09:24:20;97068.53;;;2.13;82.65
22181;BME280;11256;50.830;12.834;2023-01-30T09:29:25;97072.41;;;2.22;81.93
22181;BME280;11256;50.830;12.834;2023-01-30T09:34:26;97055.41;;;2.28;81.06
22181;BME280;11256;50.830;12.834;2023-01-30T09:39:28;97039.94;;;2.30;81.06
22181;BME280;11256;50.830;12.834;2023-01-30T09:50:10;97050.81;;;2.40;81.83
22181;BME280;11256;50.830;12.834;2023-01-30T09:55:22;97064.13;;;2.56;81.42
22181;BME280;11256;50.830;12.834;2023-01-30T10:00:33;97068.16;;;2.75;81.55
22181;BME280;11256;50.830;12.834;2023-01-30T10:05:49;97060.84;;;2.71;80.82
22181;BME280;11256;50.830;12.834;2023-01-30T10:11:25;97055.66;;;2.81;80.31
22181;BME280;11256;50.830;12.834;2023-01-30T10:16:46;97058.09;;;2.82;80.23
22181;BME280;11256;50.830;12.834;2023-01-30T10:22:01;97044.66;;;2.77;80.78
22181;BME280;11256;50.830;12.834;2023-01-30T10:27:12;97048.38;;;2.76;80.33
22181;BME280;11256;50.830;12.834;2023-01-30T10:32:18;97049.16;;;2.77;80.03
22181;BME280;11256;50.830;12.834;2023-01-30T10:37:30;97047.81;;;2.74;79.86
22181;BME280;11256;50.830;12.834;2023-01-30T10:53:46;97017.38;;;2.59;80.00
22181;BME280;11256;50.830;12.834;2023-01-30T10:59:52;97039.31;;;2.61;80.62
22181;BME280;11256;50.830;12.834;2023-01-30T11:04:55;97033.97;;;2.61;80.36
22181;BME280;11256;50.830;12.834;2023-01-30T11:09:57;97033.66;;;2.57;79.90
22181;BME280;11256;50.830;12.834;2023-01-30T11:15:00;97034.72;;;2.56;80.68
22181;BME280;11256;50.830;12.834;2023-01-30T11:20:06;97018.13;;;2.54;79.94
22181;BME280;11256;50.830;12.834;2023-01-30T11:25:16;97024.84;;;2.57;80.19
22181;BME280;11256;50.830;12.834;2023-01-30T11:30:18;97030.97;;;2.57;80.58
22181;BME280;11256;50.830;12.834;2023-01-30T11:35:22;97032.66;;;2.63;80.62
22181;BME280;11256;50.830;12.834;2023-01-30T11:40:26;97039.31;;;2.61;80.69
22181;BME280;11256;50.830;12.834;2023-01-30T11:45:27;97027.53;;;2.57;80.05
22181;BME280;11256;50.830;12.834;2023-01-30T11:50:33;97033.97;;;2.61;81.09
22181;BME280;11256;50.830;12.834;2023-01-30T11:55:38;97031.88;;;2.63;80.53
22181;BME280;11256;50.830;12.834;2023-01-30T12:00:40;97022.50;;;2.60;80.93
22181;BME280;11256;50.830;12.834;2023-01-30T12:05:44;97021.66;;;2.60;80.42
22181;BME280;11256;50.830;12.834;2023-01-30T12:10:50;97010.66;;;2.56;80.62
22181;BME280;11256;50.830;12.834;2023-01-30T12:21:20;97015.31;;;2.66;80.58
22181;BME280;11256;50.830;12.834;2023-01-30T12:26:39;96993.38;;;2.64;81.22
22181;BME280;11256;50.830;12.834;2023-01-30T12:31:45;96991.47;;;2.81;81.66
22181;BME280;11256;50.830;12.834;2023-01-30T12:37:02;96986.00;;;2.92;81.27
22181;BME280;11256;50.830;12.834;2023-01-30T12:52:59;96962.78;;;2.98;81.89
22181;BME280;11256;50.830;12.834;2023-01-30T12:58:17;96955.34;;;3.05;82.29
22181;BME280;11256;50.830;12.834;2023-01-30T13:03:33;96947.38;;;3.10;82.18
22181;BME280;11256;50.830;12.834;2023-01-30T13:14:24;96960.81;;;3.15;82.49
22181;BME280;11256;50.830;12.834;2023-01-30T13:24:47;96949.09;;;3.21;82.00
22181;BME280;11256;50.830;12.834;2023-01-30T13:29:51;96969.22;;;3.23;81.65
22181;BME280;11256;50.830;12.834;2023-01-30T13:34:53;96957.72;;;3.23;81.94
22181;BME280;11256;50.830;12.834;2023-01-30T13:40:10;96959.88;;;3.26;81.85
22181;BME280;11256;50.830;12.834;2023-01-30T13:45:21;96959.31;;;3.24;81.42
22181;BME280;11256;50.830;12.834;2023-01-30T13:50:29;96978.59;;;3.26;81.46
22181;BME280;11256;50.830;12.834;2023-01-30T13:55:36;96969.53;;;3.27;81.80
22181;BME280;11256;50.830;12.834;2023-01-30T14:00:37;96975.19;;;3.30;81.61
22181;BME280;11256;50.830;12.834;2023-01-30T14:10:50;96963.06;;;3.23;81.54
22181;BME280;11256;50.830;12.834;2023-01-30T14:16:03;96981.56;;;3.24;81.57
22181;BME280;11256;50.830;12.834;2023-01-30T14:21:21;96972.66;;;3.19;81.87
22181;BME280;11256;50.830;12.834;2023-01-30T14:31:48;96974.25;;;3.20;81.64
22181;BME280;11256;50.830;12.834;2023-01-30T14:36:50;96980.28;;;3.32;81.63
22181;BME280;11256;50.830;12.834;2023-01-30T14:42:32;96998.47;;;3.30;81.31
22181;BME280;11256;50.830;12.834;2023-01-30T14:47:31;96983.34;;;3.19;81.68
22181;BME280;11256;50.830;12.834;2023-01-30T14:52:39;97009.72;;;3.32;81.69
22181;BME280;11256;50.830;12.834;2023-01-30T14:57:50;96988.81;;;3.29;81.48
22181;BME280;11256;50.830;12.834;2023-01-30T15:02:55;97003.88;;;3.35;81.10
22181;BME280;11256;50.830;12.834;2023-01-30T15:19:01;97012.38;;;3.27;81.13
22181;BME280;11256;50.830;12.834;2023-01-30T15:24:24;97021.25;;;3.32;81.37
22181;BME280;11256;50.830;12.834;2023-01-30T15:30:03;97035.69;;;3.31;80.99
22181;BME280;11256;50.830;12.834;2023-01-30T15:40:19;97052.00;;;3.30;80.89
22181;BME280;11256;50.830;12.834;2023-01-30T15:50:58;97069.19;;;3.34;80.70
22181;BME280;11256;50.830;12.834;2023-01-30T15:56:00;97068.59;;;3.32;80.47
22181;BME280;11256;50.830;12.834;2023-01-30T16:01:02;97071.88;;;3.34;80.48
22181;BME280;11256;50.830;12.834;2023-01-30T16:06:03;97087.63;;;3.30;80.48
22181;BME280;11256;50.830;12.834;2023-01-30T16:11:04;97107.91;;;3.26;80.43
22181;BME280;11256;50.830;12.834;2023-01-30T16:16:08;97108.16;;;3.25;80.42
22181;BME280;11256;50.830;12.834;2023-01-30T16:21:18;97121.53;;;3.25;80.06
22181;BME280;11256;50.830;12.834;2023-01-30T16:26:20;97131.25;;;3.31;79.98
22181;BME280;11256;50.830;12.834;2023-01-30T16:31:21;97147.06;;;3.32;79.50
22181;BME280;11256;50.830;12.834;2023-01-30T16:41:38;97126.41;;;3.28;79.67
22181;BME280;11256;50.830;12.834;2023-01-30T16:51:40;97151.66;;;3.37;79.52
22181;BME280;11256;50.830;12.834;2023-01-30T16:56:45;97143.56;;;3.32;79.48
22181;BME280;11256;50.830;12.834;2023-01-30T17:01:47;97161.59;;;3.36;79.20
22181;BME280;11256;50.830;12.834;2023-01-30T17:06:54;97161.69;;;3.25;79.23
22181;BME280;11256;50.830;12.834;2023-01-30T17:11:58;97197.09;;;3.32;79.26
22181;BME280;11256;50.830;12.834;2023-01-30T17:17:06;97199.31;;;3.35;79.12
22181;BME280;11256;50.830;12.834;2023-01-30T17:22:07;97198.25;;;3.36;79.48
22181;BME280;11256;50.830;12.834;2023-01-30T17:27:14;97203.03;;;3.34;79.40
22181;BME280;11256;50.830;12.834;2023-01-30T17:32:15;97216.50;;;3.39;79.30
22181;BME280;11256;50.830;12.834;2023-01-30T17:37:18;97199.31;;;3.35;79.17
22181;BME280;11256;50.830;12.834;2023-01-30T17:42:20;97210.75;;;3.30;79.51
22181;BME280;11256;50.830;12.834;2023-01-30T17:47:21;97198.75;;;3.33;79.48
22181;BME280;11256;50.830;12.834;2023-01-30T17:52:21;97229.88;;;3.39;79.12
22181;BME280;11256;50.830;12.834;2023-01-30T17:57:21;97232.56;;;3.39;79.60
22181;BME280;11256;50.830;12.834;2023-01-30T18:02:24;97247.56;;;3.40;79.46
22181;BME280;11256;50.830;12.834;2023-01-30T18:07:28;97262.03;;;3.39;79.49
22181;BME280;11256;50.830;12.834;2023-01-30T18:12:28;97256.59;;;3.34;79.27
22181;BME280;11256;50.830;12.834;2023-01-30T18:17:28;97282.94;;;3.42;79.30
22181;BME280;11256;50.830;12.834;2023-01-30T18:22:29;97274.81;;;3.37;79.51
22181;BME280;11256;50.830;12.834;2023-01-30T18:27:29;97283.91;;;3.36;79.08
22181;BME280;11256;50.830;12.834;2023-01-30T18:32:29;97315.06;;;3.42;79.34
22181;BME280;11256;50.830;12.834;2023-01-30T18:37:30;97319.94;;;3.45;79.42
22181;BME280;11256;50.830;12.834;2023-01-30T18:42:30;97316.19;;;3.46;79.06
22181;BME280;11256;50.830;12.834;2023-01-30T18:47:30;97333.81;;;3.42;79.36
22181;BME280;11256;50.830;12.834;2023-01-30T18:52:31;97333.25;;;3.40;79.31
22181;BME280;11256;50.830;12.834;2023-01-30T18:57:31;97332.09;;;3.36;79.49
22181;BME280;11256;50.830;12.834;2023-01-30T19:02:32;97368.06;;;3.40;79.52
22181;BME280;11256;50.830;12.834;2023-01-30T19:07:34;97347.69;;;3.39;79.49
22181;BME280;11256;50.830;12.834;2023-01-30T19:12:34;97352.53;;;3.42;79.54
22181;BME280;11256;50.830;12.834;2023-01-30T19:17:53;97375.59;;;3.43;79.62
22181;BME280;11256;50.830;12.834;2023-01-30T19:22:53;97385.50;;;3.42;79.51
22181;BME280;11256;50.830;12.834;2023-01-30T19:27:54;97402.38;;;3.43;79.67
22181;BME280;11256;50.830;12.834;2023-01-30T19:32:54;97401.34;;;3.44;79.60
22181;BME280;11256;50.830;12.834;2023-01-30T19:37:57;97420.63;;;3.46;79.43
22181;BME280;11256;50.830;12.834;2023-01-30T19:42:59;97420.88;;;3.44;79.62
22181;BME280;11256;50.830;12.834;2023-01-30T19:47:59;97436.94;;;3.44;79.55
22181;BME280;11256;50.830;12.834;2023-01-30T19:53:00;97443.13;;;3.45;79.68
22181;BME280;11256;50.830;12.834;2023-01-30T19:58:00;97446.84;;;3.44;79.53
22181;BME280;11256;50.830;12.834;2023-01-30T20:03:01;97476.88;;;3.46;79.66
22181;BME280;11256;50.830;12.834;2023-01-30T20:08:01;97475.25;;;3.45;79.84
22181;BME280;11256;50.830;12.834;2023-01-30T20:13:02;97486.28;;;3.48;79.58
22181;BME280;11256;50.830;12.834;2023-01-30T20:18:02;97501.06;;;3.51;79.67
22181;BME280;11256;50.830;12.834;2023-01-30T20:23:03;97498.06;;;3.47;79.79
22181;BME280;11256;50.830;12.834;2023-01-30T20:28:03;97510.97;;;3.50;79.41
22181;BME280;11256;50.830;12.834;2023-01-30T20:33:03;97507.72;;;3.48;79.61
22181;BME280;11256;50.830;12.834;2023-01-30T20:38:04;97514.81;;;3.43;79.71
22181;BME280;11256;50.830;12.834;2023-01-30T20:43:04;97498.75;;;3.43;80.19
22181;BME280;11256;50.830;12.834;2023-01-30T20:48:04;97522.06;;;3.42;80.14
22181;BME280;11256;50.830;12.834;2023-01-30T20:53:05;97507.84;;;3.42;79.77
22181;BME280;11256;50.830;12.834;2023-01-30T20:58:05;97515.19;;;3.46;80.28
22181;BME280;11256;50.830;12.834;2023-01-30T21:03:06;97511.91;;;3.44;80.05
22181;BME280;11256;50.830;12.834;2023-01-30T21:08:06;97528.72;;;3.40;80.45
22181;BME280;11256;50.830;12.834;2023-01-30T21:13:07;97538.94;;;3.43;80.05
22181;BME280;11256;50.830;12.834;2023-01-30T21:18:07;97526.50;;;3.37;80.39
22181;BME280;11256;50.830;12.834;2023-01-30T21:23:07;97539.00;;;3.31;79.86
22181;BME280;11256;50.830;12.834;2023-01-30T21:28:08;97548.97;;;3.36;80.08
22181;BME280;11256;50.830;12.834;2023-01-30T21:33:08;97576.81;;;3.35;80.10
22181;BME280;11256;50.830;12.834;2023-01-30T21:38:09;97577.13;;;3.38;80.35
22181;BME280;11256;50.830;12.834;2023-01-30T21:43:28;97597.41;;;3.34;80.16
22181;BME280;11256;50.830;12.834;2023-01-30T21:48:28;97616.50;;;3.38;80.44
22181;BME280;11256;50.830;12.834;2023-01-30T21:53:29;97604.16;;;3.37;80.07
22181;BME280;11256;50.830;12.834;2023-01-30T21:58:32;97591.25;;;3.34;80.46
22181;BME280;11256;50.830;12.834;2023-01-30T22:03:34;97607.19;;;3.40;80.43
22181;BME280;11256;50.830;12.834;2023-01-30T22:08:35;97602.53;;;3.36;80.71
22181;BME280;11256;50.830;12.834;2023-01-30T22:13:37;97614.28;;;3.35;80.57
22181;BME280;11256;50.830;12.834;2023-01-30T22:18:39;97623.84;;;3.31;80.78
22181;BME280;11256;50.830;12.834;2023-01-30T22:23:42;97622.69;;;3.27;80.81
22181;BME280;11256;50.830;12.834;2023-01-30T22:28:43;97689.72;;;3.32;80.71
22181;BME280;11256;50.830;12.834;2023-01-30T22:33:45;97657.59;;;3.32;80.87
22181;BME280;11256;50.830;12.834;2023-01-30T22:38:47;97681.81;;;3.37;81.01
22181;BME280;11256;50.830;12.834;2023-01-30T22:48:49;97680.19;;;3.36;80.75
22181;BME280;11256;50.830;12.834;2023-01-30T22:53:52;97687.16;;;3.37;80.85
22181;BME280;11256;50.830;12.834;2023-01-30T22:58:53;97688.31;;;3.29;80.78
22181;BME280;11256;50.830;12.834;2023-01-30T23:04:08;97695.56;;;3.29;80.74
22181;BME280;11256;50.830;12.834;2023-01-30T23:09:12;97682.28;;;3.22;81.12
22181;BME280;11256;50.830;12.834;2023-01-30T23:14:15;97681.72;;;3.20;81.04
22181;BME280;11256;50.830;12.834;2023-01-30T23:19:15;97679.59;;;3.22;81.10
22181;BME280;11256;50.830;12.834;2023-01-30T23:24:18;97682.28;;;3.22;80.93
22181;BME280;11256;50.830;12.834;2023-01-30T23:29:19;97692.88;;;3.29;80.75
22181;BME280;11256;50.830;12.834;2023-01-30T23:34:19;97690.31;;;3.22;81.03
22181;BME280;11256;50.830;12.834;2023-01-30T23:39:19;97689.03;;;3.25;80.99
22181;BME280;11256;50.830;12.834;2023-01-30T23:44:20;97684.16;;;3.22;80.86
22181;BME280;11256;50.830;12.834;2023-01-30T23:49:20;97684.50;;;3.25;80.85
22181;BME280;11256;50.830;12.834;2023-01-30T23:54:20;97674.13;;;3.29;80.93
22181;BME280;11256;50.830;12.834;2023-01-30T23:59:21;97658.41;;;3.21;80.91
